Terminal Aerodrome Forecast
Issued by NWS

Home | Current Version | Previous Version | Text Only | Print | Product List | Glossary On
Versions: 1 2 3 4 5 6 7 8 9 10 11 12 13 14 15 16 17 18 19 20 21 22 23 24 25
000
FTUS42 KGSP 271720
TAFHKY
TAF
KHKY 271720Z 2718/2818 19003KT P6SM SCT250
     FM280000 00000KT P6SM BKN090
     FM281000 22004KT P6SM -SHRA OVC040
     FM281200 22005KT 4SM -SHRA BR OVC015
     FM281400 22005KT 2SM -SHRA BR OVC007=

USA.gov is the U.S. government's official web portal to all federal, state and local government web resources and services.